Time;durP1;ratioP1;P1;durP2;ratioP2;P2;SDS_P1;SDS_P2;PMS_P1;PMS_P2;Temp;Humidity;BMP_temperature;BMP_pressure;BME280_temperature;BME280_humidity;BME280_pressure;Samples;Min_cycle;Max_cycle;Signal;HPM_P1;HPM_P2
2022/08/01 00:00:38;;;;;;;;;1.00;1.00;;;;;-145.45;100.00;57426.63;5101528;27;45180;-73
2022/08/01 00:03:03;;;;;;;;;1.00;1.00;;;;;-145.45;100.00;57426.63;5082701;27;45329;-73
2022/08/01 00:05:28;;;;;;;;;0.33;0.33;;;;;-145.45;100.00;57426.63;5100948;27;45339;-73
2022/08/01 00:07:54;;;;;;;;;3.00;2.00;;;;;-145.45;100.00;57426.63;5101178;27;45318;-73
2022/08/01 00:10:19;;;;;;;;;2.00;1.00;;;;;-145.45;100.00;57426.63;5101155;27;45285;-73
2022/08/01 00:12:46;;;;;;;;;2.00;2.00;;;;;-145.45;100.00;57426.63;5100586;27;45518;-73
2022/08/01 00:15:14;;;;;;;;;2.67;2.00;;;;;-145.45;100.00;57426.63;5101037;27;45315;-73
2022/08/01 00:17:40;;;;;;;;;2.50;2.00;;;;;-145.45;100.00;57426.63;5100964;27;45344;-73
2022/08/01 00:20:08;;;;;;;;;0.67;0.33;;;;;-145.45;100.00;57426.63;5100814;27;45255;-73
2022/08/01 00:22:34;;;;;;;;;1.67;1.67;;;;;-145.45;100.00;57426.63;5101154;27;45335;-73
2022/08/01 00:24:59;;;;;;;;;1.00;1.00;;;;;-145.45;100.00;57426.63;5100859;27;45331;-73
2022/08/01 00:27:25;;;;;;;;;1.00;1.00;;;;;-145.45;100.00;57426.63;5088975;27;45327;-73
2022/08/01 00:29:50;;;;;;;;;1.00;1.00;;;;;-145.45;100.00;57426.63;5080391;28;45411;-73
2022/08/01 00:32:16;;;;;;;;;1.25;1.25;;;;;-145.45;100.00;57426.63;5080644;28;45421;-73
2022/08/01 00:34:41;;;;;;;;;1.00;1.00;;;;;-145.45;100.00;57426.63;5083650;27;46938;-73
2022/08/01 00:37:07;;;;;;;;;1.50;1.50;;;;;-145.45;100.00;57426.63;5079907;28;45281;-73
2022/08/01 00:39:35;;;;;;;;;0.25;0.25;;;;;-145.45;100.00;57426.63;5076478;28;45391;-73
2022/08/01 00:42:06;;;;;;;;;0.00;0.00;;;;;-145.45;100.00;57426.63;5080565;27;45240;-73
2022/08/01 00:44:31;;;;;;;;;1.00;1.00;;;;;-145.45;100.00;57426.63;5080101;27;45308;-73
2022/08/01 00:46:56;;;;;;;;;1.50;1.50;;;;;-145.45;100.00;57426.63;5080072;28;46460;-73
2022/08/01 00:49:22;;;;;;;;;4.00;2.00;;;;;-145.45;100.00;57426.63;5080125;28;45285;-73
2022/08/01 00:51:48;;;;;;;;;1.50;1.50;;;;;-145.45;100.00;57426.63;5080321;28;45328;-73
2022/08/01 00:54:14;;;;;;;;;2.00;1.00;;;;;-145.45;100.00;57426.63;5079471;27;45548;-73
2022/08/01 00:56:39;;;;;;;;;2.00;2.00;;;;;-145.45;100.00;57426.63;5080128;27;46381;-74
2022/08/01 00:59:05;;;;;;;;;1.00;1.00;;;;;-145.45;100.00;57426.63;5080040;28;45243;-73
2022/08/01 01:01:31;;;;;;;;;1.00;1.00;;;;;-145.45;100.00;57426.63;5080426;28;45410;-73
2022/08/01 01:03:56;;;;;;;;;0.00;0.00;;;;;-145.45;100.00;57426.63;5079382;28;46070;-73
2022/08/01 01:06:38;;;;;;;;;0.25;0.25;;;;;-145.45;100.00;57426.63;5079847;28;46004;-73
2022/08/01 01:09:26;;;;;;;;;1.25;0.00;;;;;-145.45;100.00;57426.63;5067957;27;45266;-74
2022/08/01 01:11:58;;;;;;;;;1.00;1.00;;;;;-145.45;100.00;57426.63;5099208;27;45246;-74
2022/08/01 01:14:33;;;;;;;;;1.67;1.67;;;;;-145.45;100.00;57426.63;5099548;27;45234;-73
2022/08/01 01:17:02;;;;;;;;;0.50;0.50;;;;;-145.45;100.00;57426.63;5100091;27;45268;-73
2022/08/01 01:19:32;;;;;;;;;1.67;1.67;;;;;-145.45;100.00;57426.63;5081776;27;45961;-73
2022/08/01 01:22:30;;;;;;;;;1.00;1.00;;;;;-145.45;100.00;57426.63;5081648;27;45312;-73
2022/08/01 01:25:32;;;;;;;;;0.25;0.25;;;;;-145.45;100.00;57426.63;5101341;27;45391;-73
2022/08/01 01:28:05;;;;;;;;;1.25;0.50;;;;;-145.45;100.00;57426.63;5087238;27;45377;-73
2022/08/01 01:30:32;;;;;;;;;1.25;1.00;;;;;-145.45;100.00;57426.63;5083350;28;45331;-73
2022/08/01 01:33:01;;;;;;;;;1.00;1.00;;;;;-145.45;100.00;57426.63;5083361;27;45359;-73
2022/08/01 01:35:31;;;;;;;;;1.75;0.75;;;;;-145.45;100.00;57426.63;5087695;27;45167;-73
2022/08/01 01:38:14;;;;;;;;;1.00;1.00;;;;;-145.45;100.00;57426.63;5082918;27;46393;-73
2022/08/01 01:40:42;;;;;;;;;1.00;1.00;;;;;-145.45;100.00;57426.63;5083113;28;45305;-73
2022/08/01 01:43:11;;;;;;;;;0.25;0.25;;;;;-145.45;100.00;57426.63;5083364;27;45316;-73
2022/08/01 01:45:38;;;;;;;;;1.00;1.00;;;;;-145.45;100.00;57426.63;5064718;27;47367;-73
2022/08/01 01:48:07;;;;;;;;;1.00;1.00;;;;;-145.45;100.00;57426.63;5083028;27;45398;-73
2022/08/01 01:50:34;;;;;;;;;1.75;1.75;;;;;-145.45;100.00;57426.63;5082737;27;45601;-73
2022/08/01 01:53:02;;;;;;;;;1.25;1.25;;;;;-145.45;100.00;57426.63;5083217;27;45245;-74
2022/08/01 01:55:29;;;;;;;;;1.25;1.00;;;;;-145.45;100.00;57426.63;5082619;27;45466;-73
2022/08/01 01:57:57;;;;;;;;;1.00;1.00;;;;;-145.45;100.00;57426.63;5083126;27;45338;-73
2022/08/01 02:00:24;;;;;;;;;0.67;0.67;;;;;-145.45;100.00;57426.63;5082695;27;45494;-74
2022/08/01 02:02:52;;;;;;;;;2.00;2.00;;;;;-145.45;100.00;57426.63;5083194;27;45290;-73
2022/08/01 02:05:18;;;;;;;;;1.67;1.33;;;;;-145.45;100.00;57426.63;5064159;27;45490;-73
2022/08/01 02:07:45;;;;;;;;;0.67;0.67;;;;;-145.45;100.00;57426.63;5082825;27;45367;-73
2022/08/01 02:10:11;;;;;;;;;2.00;1.00;;;;;-145.45;100.00;57426.63;5082616;27;45342;-73
2022/08/01 02:12:41;;;;;;;;;1.75;1.75;;;;;-145.45;100.00;57426.63;5082972;28;45292;-73
2022/08/01 02:15:09;;;;;;;;;4.00;2.67;;;;;-145.45;100.00;57426.63;5077808;27;47522;-73
2022/08/01 02:17:39;;;;;;;;;5.00;5.00;;;;;-145.45;100.00;57426.63;5064350;28;46623;-73
2022/08/01 02:20:05;;;;;;;;;5.00;5.00;;;;;-145.45;100.00;57426.63;5082222;27;45269;-73
2022/08/01 02:22:34;;;;;;;;;2.33;2.00;;;;;-145.45;100.00;57426.63;5082659;28;45276;-73
2022/08/01 02:25:10;;;;;;;;;9.67;6.00;;;;;-145.45;100.00;57426.63;5082144;27;45294;-74
2022/08/01 02:27:45;;;;;;;;;3.33;3.33;;;;;-145.45;100.00;57426.63;5081987;28;46669;-73
2022/08/01 02:30:13;;;;;;;;;3.00;3.00;;;;;-145.45;100.00;57426.63;5082349;27;45348;-73
2022/08/01 02:33:01;;;;;;;;;3.00;3.00;;;;;-145.45;100.00;57426.63;5082408;27;45185;-73
2022/08/01 02:35:28;;;;;;;;;2.00;2.00;;;;;-145.45;100.00;57426.63;5086745;27;45228;-73
2022/08/01 02:37:57;;;;;;;;;1.00;1.00;;;;;-145.45;100.00;57426.63;5081986;27;45356;-73
2022/08/01 02:40:26;;;;;;;;;2.67;1.67;;;;;-145.45;100.00;57426.63;5071296;28;45343;-73
2022/08/01 02:42:54;;;;;;;;;0.00;0.00;;;;;-145.45;100.00;57426.63;5082261;28;45260;-73
2022/08/01 02:45:24;;;;;;;;;0.25;0.25;;;;;-145.45;100.00;57426.63;5082158;27;45384;-74
2022/08/01 02:47:53;;;;;;;;;0.50;0.50;;;;;-145.45;100.00;57426.63;5081804;27;47668;-73
2022/08/01 02:50:20;;;;;;;;;0.00;0.00;;;;;-145.45;100.00;57426.63;5063587;28;45988;-73
2022/08/01 02:52:50;;;;;;;;;0.00;0.00;;;;;-145.45;100.00;57426.63;5082200;27;45510;-73
2022/08/01 02:55:18;;;;;;;;;0.50;0.50;;;;;-145.45;100.00;57426.63;5081996;27;45200;-74
2022/08/01 02:57:47;;;;;;;;;2.25;0.50;;;;;-145.45;100.00;57426.63;5063560;28;48169;-73
2022/08/01 03:00:15;;;;;;;;;0.25;0.25;;;;;-145.45;100.00;57426.63;5081817;28;45300;-73
2022/08/01 03:02:43;;;;;;;;;2.00;1.00;;;;;-145.45;100.00;57426.63;5081526;28;45256;-73
2022/08/01 03:05:11;;;;;;;;;1.00;1.00;;;;;-145.45;100.00;57426.63;5081502;27;45490;-74
2022/08/01 03:07:37;;;;;;;;;1.00;1.00;;;;;-145.45;100.00;57426.63;5081787;28;45421;-73
2022/08/01 03:10:03;;;;;;;;;0.00;0.00;;;;;-145.45;100.00;57426.63;5081548;27;45306;-73
2022/08/01 03:12:31;;;;;;;;;1.00;1.00;;;;;-145.45;100.00;57426.63;5081845;27;45295;-73
2022/08/01 03:15:00;;;;;;;;;0.00;0.00;;;;;-145.45;100.00;57426.63;5081644;27;45274;-73
2022/08/01 03:17:27;;;;;;;;;0.50;0.50;;;;;-145.45;100.00;57426.63;5063004;28;46869;-73
2022/08/01 03:19:53;;;;;;;;;1.00;1.00;;;;;-145.45;100.00;57426.63;5081340;27;45487;-73
2022/08/01 03:22:22;;;;;;;;;1.00;1.00;;;;;-145.45;100.00;57426.63;5063155;28;45202;-73
2022/08/01 03:24:51;;;;;;;;;1.00;1.00;;;;;-145.45;100.00;57426.63;5081531;28;45265;-73
2022/08/01 03:27:20;;;;;;;;;1.00;1.00;;;;;-145.45;100.00;57426.63;5081118;28;46602;-73
2022/08/01 03:29:47;;;;;;;;;1.00;1.00;;;;;-145.45;100.00;57426.63;5081369;28;45158;-73
2022/08/01 03:32:13;;;;;;;;;2.00;1.00;;;;;-145.45;100.00;57426.63;5081541;27;45373;-73
2022/08/01 03:34:39;;;;;;;;;1.00;1.00;;;;;-145.45;100.00;57426.63;5085640;27;45299;-73
2022/08/01 03:37:19;;;;;;;;;0.00;0.00;;;;;-145.45;100.00;57426.63;5080887;28;45320;-73
2022/08/01 03:39:54;;;;;;;;;1.00;1.00;;;;;-145.45;100.00;57426.63;5081254;28;45373;-73
2022/08/01 03:42:25;;;;;;;;;1.33;1.00;;;;;-145.45;100.00;57426.63;5081257;27;45288;-73
2022/08/01 03:44:56;;;;;;;;;1.67;1.33;;;;;-145.45;100.00;57426.63;5068035;28;46834;-73
2022/08/01 03:47:26;;;;;;;;;2.00;2.00;;;;;-145.45;100.00;57426.63;5080032;28;45240;-73
2022/08/01 03:49:53;;;;;;;;;1.00;1.00;;;;;-145.45;100.00;57426.63;5080960;27;45400;-73
2022/08/01 03:52:19;;;;;;;;;2.33;1.00;;;;;-145.45;100.00;57426.63;5081365;28;45327;-73
2022/08/01 03:54:49;;;;;;;;;1.00;1.00;;;;;-145.45;100.00;57426.63;5081006;27;45499;-73
2022/08/01 03:57:15;;;;;;;;;1.00;1.00;;;;;-145.45;100.00;57426.63;5080778;27;45428;-73
2022/08/01 03:59:42;;;;;;;;;1.00;1.00;;;;;-145.45;100.00;57426.63;5080885;28;45336;-73
2022/08/01 04:02:08;;;;;;;;;1.00;1.00;;;;;-145.45;100.00;57426.63;5081063;27;45266;-73
2022/08/01 04:04:34;;;;;;;;;1.75;1.75;;;;;-145.45;100.00;57426.63;5080933;27;45415;-73
2022/08/01 04:07:04;;;;;;;;;1.00;1.00;;;;;-145.45;100.00;57426.63;5080456;27;45427;-73
2022/08/01 04:09:31;;;;;;;;;1.00;1.00;;;;;-145.45;100.00;57426.63;5080807;28;45424;-73
2022/08/01 04:11:56;;;;;;;;;0.75;0.75;;;;;-145.45;100.00;57426.63;5080732;28;45351;-73
2022/08/01 04:14:21;;;;;;;;;2.50;1.00;;;;;-145.45;100.00;57426.63;5080669;27;45319;-73
2022/08/01 04:16:47;;;;;;;;;1.00;1.00;;;;;-145.45;100.00;57426.63;5080596;27;46265;-73
2022/08/01 04:19:12;;;;;;;;;1.67;1.67;;;;;-145.45;100.00;57426.63;5080666;28;45308;-73
2022/08/01 04:21:38;;;;;;;;;0.50;0.50;;;;;-145.45;100.00;57426.63;5080591;27;44792;-73
2022/08/01 04:24:10;;;;;;;;;1.00;1.00;;;;;-145.45;100.00;57426.63;5080606;28;45470;-74
2022/08/01 04:26:39;;;;;;;;;2.00;2.00;;;;;-145.45;100.00;57426.63;5080296;27;46546;-73
2022/08/01 04:29:08;;;;;;;;;1.00;1.00;;;;;-145.45;100.00;57426.63;5079667;28;45238;-73
2022/08/01 04:31:35;;;;;;;;;1.00;1.00;;;;;-145.45;100.00;57426.63;5080512;28;45183;-73
2022/08/01 04:34:04;;;;;;;;;3.00;2.00;;;;;-145.45;100.00;57426.63;5083382;27;45781;-73
2022/08/01 04:36:34;;;;;;;;;1.00;1.00;;;;;-145.45;100.00;57426.63;5080034;27;45500;-73
2022/08/01 04:39:01;;;;;;;;;1.67;1.67;;;;;-145.45;100.00;57426.63;5080354;28;45360;-74
2022/08/01 04:41:29;;;;;;;;;1.00;1.00;;;;;-145.45;100.00;57426.63;5080690;28;45336;-73
2022/08/01 04:43:55;;;;;;;;;1.00;1.00;;;;;-145.45;100.00;57426.63;5080266;27;45603;-74
2022/08/01 04:46:22;;;;;;;;;3.00;1.33;;;;;-145.45;100.00;57426.63;5080325;28;45980;-73
2022/08/01 04:48:49;;;;;;;;;1.00;1.00;;;;;-145.45;100.00;57426.63;5080058;27;45267;-73
2022/08/01 04:51:16;;;;;;;;;0.00;0.00;;;;;-145.45;100.00;57426.63;5061967;28;45321;-73
2022/08/01 04:53:42;;;;;;;;;1.00;1.00;;;;;-145.45;100.00;57426.63;5080049;27;45388;-73
2022/08/01 04:56:08;;;;;;;;;0.67;0.67;;;;;-145.45;100.00;57426.63;5061519;28;47944;-73
2022/08/01 04:58:33;;;;;;;;;1.00;1.00;;;;;-145.45;100.00;57426.63;5079869;28;45307;-73
2022/08/01 05:00:59;;;;;;;;;1.00;1.00;;;;;-145.45;100.00;57426.63;5080195;27;45484;-73
2022/08/01 05:03:24;;;;;;;;;0.75;0.75;;;;;-145.45;100.00;57426.63;5080181;28;45344;-73
2022/08/01 05:05:49;;;;;;;;;1.00;1.00;;;;;-145.45;100.00;57426.63;5079874;28;45255;-73
2022/08/01 05:08:16;;;;;;;;;0.00;0.00;;;;;-145.45;100.00;57426.63;5079881;28;45163;-74
2022/08/01 05:10:41;;;;;;;;;3.00;1.67;;;;;-145.45;100.00;57426.63;5066455;28;45474;-73
2022/08/01 05:13:07;;;;;;;;;0.00;0.00;;;;;-145.45;100.00;57426.63;5079904;28;45213;-73
2022/08/01 05:15:32;;;;;;;;;1.00;1.00;;;;;-145.45;100.00;57426.63;5079810;28;45244;-74
2022/08/01 05:17:58;;;;;;;;;0.00;0.00;;;;;-145.45;100.00;57426.63;5079781;27;47570;-73
2022/08/01 05:20:24;;;;;;;;;0.25;0.00;;;;;-145.45;100.00;57426.63;5079822;28;45171;-73
2022/08/01 05:22:50;;;;;;;;;1.00;1.00;;;;;-145.45;100.00;57426.63;5079665;28;45464;-73
2022/08/01 05:25:15;;;;;;;;;0.67;0.67;;;;;-145.45;100.00;57426.63;5079653;28;45346;-73
2022/08/01 05:27:40;;;;;;;;;1.50;1.50;;;;;-145.45;100.00;57426.63;5079874;28;45339;-73
2022/08/01 05:30:08;;;;;;;;;2.00;1.00;;;;;-145.45;100.00;57426.63;5078801;28;44725;-74
2022/08/01 05:32:33;;;;;;;;;1.50;0.50;;;;;-145.45;100.00;57426.63;5079725;28;45276;-72
2022/08/01 05:34:59;;;;;;;;;1.00;1.00;;;;;-145.45;100.00;57426.63;5066008;28;47057;-72
2022/08/01 05:37:24;;;;;;;;;0.75;0.75;;;;;-145.45;100.00;57426.63;5079429;28;45240;-72
2022/08/01 05:39:50;;;;;;;;;1.00;1.00;;;;;-145.45;100.00;57426.63;5079794;28;45225;-73
2022/08/01 05:42:15;;;;;;;;;3.00;1.67;;;;;-145.45;100.00;57426.63;5079414;28;45229;-72
2022/08/01 05:44:40;;;;;;;;;0.75;0.75;;;;;-145.45;100.00;57426.63;5079516;28;45909;-72
2022/08/01 05:47:06;;;;;;;;;1.33;1.33;;;;;-145.45;100.00;57426.63;5079485;28;45162;-72
2022/08/01 05:49:31;;;;;;;;;0.75;0.75;;;;;-145.45;100.00;57426.63;5079350;28;45253;-73
2022/08/01 05:51:56;;;;;;;;;1.33;1.33;;;;;-145.45;100.00;57426.63;5079204;28;45178;-72
2022/08/01 05:54:22;;;;;;;;;2.00;2.00;;;;;-145.45;100.00;57426.63;5079327;28;45292;-72
2022/08/01 05:56:47;;;;;;;;;3.67;1.33;;;;;-145.45;100.00;57426.63;5079319;28;45280;-72
2022/08/01 05:59:12;;;;;;;;;1.25;1.00;;;;;-145.45;100.00;57426.63;5079249;28;45229;-72
2022/08/01 06:01:38;;;;;;;;;0.67;0.67;;;;;-145.45;100.00;57426.63;5079282;27;45183;-72
2022/08/01 06:04:03;;;;;;;;;1.67;1.67;;;;;-145.45;100.00;57426.63;5079004;28;46436;-72
2022/08/01 06:06:29;;;;;;;;;4.67;1.00;;;;;-145.45;100.00;57426.63;5079048;27;45194;-72
2022/08/01 06:08:54;;;;;;;;;1.25;1.25;;;;;-145.45;100.00;57426.63;5077805;27;45528;-72
2022/08/01 06:11:19;;;;;;;;;1.00;1.00;;;;;-145.45;100.00;57426.63;5081127;28;45270;-72
2022/08/01 06:13:45;;;;;;;;;1.00;1.00;;;;;-145.45;100.00;57426.63;5082433;27;46602;-72
2022/08/01 06:16:10;;;;;;;;;0.33;0.33;;;;;-145.45;100.00;57426.63;5082654;27;45452;-72
2022/08/01 06:18:35;;;;;;;;;1.00;1.00;;;;;-145.45;100.00;57426.63;5082597;27;45493;-72
2022/08/01 06:21:01;;;;;;;;;2.00;1.00;;;;;-145.45;100.00;57426.63;5082254;28;45256;-72
2022/08/01 06:23:26;;;;;;;;;0.00;0.00;;;;;-145.45;100.00;57426.63;5082291;27;47049;-72
2022/08/01 06:25:53;;;;;;;;;0.50;0.50;;;;;-145.45;100.00;57426.63;5082404;27;45311;-72
2022/08/01 06:28:19;;;;;;;;;0.00;0.00;;;;;-145.45;100.00;57426.63;5082251;27;45331;-72
2022/08/01 06:30:44;;;;;;;;;1.00;1.00;;;;;-145.45;100.00;57426.63;5082396;27;46688;-73
2022/08/01 06:33:09;;;;;;;;;1.00;1.00;;;;;-145.45;100.00;57426.63;5082134;28;46395;-73
2022/08/01 06:35:35;;;;;;;;;0.67;0.67;;;;;-145.45;100.00;57426.63;5085555;27;45206;-73
2022/08/01 06:38:02;;;;;;;;;1.75;1.75;;;;;-145.45;100.00;57426.63;5082265;28;45459;-73
2022/08/01 06:40:27;;;;;;;;;1.00;1.00;;;;;-145.45;100.00;57426.63;5081994;28;45471;-72
2022/08/01 06:42:53;;;;;;;;;1.33;1.33;;;;;-145.45;100.00;57426.63;5081892;27;48064;-72
2022/08/01 06:45:18;;;;;;;;;1.25;1.25;;;;;-145.45;100.00;57426.63;5082095;27;45240;-72
2022/08/01 06:47:45;;;;;;;;;1.50;1.50;;;;;-145.45;100.00;57426.63;5080697;27;45880;-72
2022/08/01 06:50:11;;;;;;;;;2.00;2.00;;;;;-145.45;100.00;57426.63;5081907;28;45337;-72
2022/08/01 06:52:36;;;;;;;;;2.67;2.33;;;;;-145.45;100.00;57426.63;5081884;27;45381;-72
2022/08/01 06:55:02;;;;;;;;;2.00;2.00;;;;;-145.45;100.00;57426.63;5081995;27;45319;-73
2022/08/01 06:57:28;;;;;;;;;5.33;3.00;;;;;-145.45;100.00;57426.63;5081910;27;45258;-72
2022/08/01 06:59:54;;;;;;;;;2.33;2.33;;;;;-145.45;100.00;57426.63;5081829;28;45439;-72
2022/08/01 07:02:19;;;;;;;;;5.00;4.00;;;;;-145.45;100.00;57426.63;5081651;28;45549;-73
2022/08/01 07:04:45;;;;;;;;;5.33;4.33;;;;;-145.45;100.00;57426.63;5081832;28;45200;-73
2022/08/01 07:07:10;;;;;;;;;3.00;3.00;;;;;-145.45;100.00;57426.63;5081809;27;45501;-73
2022/08/01 07:09:36;;;;;;;;;3.33;3.33;;;;;-145.45;100.00;57426.63;5081759;28;45517;-72
2022/08/01 07:12:02;;;;;;;;;6.00;4.33;;;;;-145.45;100.00;57426.63;5081522;27;45921;-72
2022/08/01 07:14:27;;;;;;;;;5.00;5.00;;;;;-145.45;100.00;57426.63;5080893;27;45472;-73
2022/08/01 07:16:53;;;;;;;;;4.33;4.33;;;;;-145.45;100.00;57426.63;5081810;28;45236;-73
2022/08/01 07:19:18;;;;;;;;;8.00;7.00;;;;;-145.45;100.00;57426.63;5081562;28;45455;-72
2022/08/01 07:21:44;;;;;;;;;4.33;4.00;;;;;-145.45;100.00;57426.63;5081207;28;46698;-72
2022/08/01 07:24:12;;;;;;;;;5.00;5.00;;;;;-145.45;100.00;57426.63;5081495;28;45291;-72
2022/08/01 07:26:38;;;;;;;;;4.00;4.00;;;;;-145.45;100.00;57426.63;5081450;27;45323;-72
2022/08/01 07:29:04;;;;;;;;;5.33;5.33;;;;;-145.45;100.00;57426.63;5071216;28;46038;-72
2022/08/01 07:31:29;;;;;;;;;6.00;5.33;;;;;-145.45;100.00;57426.63;5081732;27;47941;-72
2022/08/01 07:33:54;;;;;;;;;3.67;3.67;;;;;-145.45;100.00;57426.63;5101818;27;45200;-72
2022/08/01 07:36:20;;;;;;;;;5.00;5.00;;;;;-145.45;100.00;57426.63;5082973;27;45425;-72
2022/08/01 07:38:46;;;;;;;;;6.33;5.67;;;;;-145.45;100.00;57426.63;5081448;28;45203;-72
2022/08/01 07:41:11;;;;;;;;;7.00;7.00;;;;;-145.45;100.00;57426.63;5080997;27;45331;-73
2022/08/01 07:43:37;;;;;;;;;6.00;4.33;;;;;-145.45;100.00;57426.63;5081436;28;45173;-73
2022/08/01 07:46:03;;;;;;;;;6.67;6.67;;;;;-145.45;100.00;57426.63;5081248;28;45300;-73
2022/08/01 07:48:29;;;;;;;;;4.67;4.67;;;;;-145.45;100.00;57426.63;5081427;28;45637;-73
2022/08/01 07:50:54;;;;;;;;;5.67;5.33;;;;;-145.45;100.00;57426.63;5080683;27;46122;-73
2022/08/01 07:53:20;;;;;;;;;6.00;6.00;;;;;-145.45;100.00;57426.63;5081257;28;45355;-73
2022/08/01 07:55:45;;;;;;;;;5.00;5.00;;;;;-145.45;100.00;57426.63;5080998;27;45265;-74
2022/08/01 07:58:11;;;;;;;;;6.00;6.00;;;;;-145.45;100.00;57426.63;5080436;28;45324;-73
2022/08/01 08:00:37;;;;;;;;;5.00;4.00;;;;;-145.45;100.00;57426.63;5080919;27;45615;-73
2022/08/01 08:03:02;;;;;;;;;6.00;4.33;;;;;-145.45;100.00;57426.63;5080871;28;45315;-73
2022/08/01 08:05:28;;;;;;;;;5.25;4.00;;;;;-145.45;100.00;57426.63;5080740;27;45770;-73
2022/08/01 08:07:54;;;;;;;;;3.67;3.67;;;;;-145.45;100.00;57426.63;5080616;27;45664;-73
2022/08/01 08:10:19;;;;;;;;;4.67;4.67;;;;;-145.45;100.00;57426.63;5080937;27;45254;-73
2022/08/01 08:12:46;;;;;;;;;5.50;5.00;;;;;-145.45;100.00;57426.63;5080701;28;45244;-74
2022/08/01 08:15:12;;;;;;;;;4.75;4.75;;;;;-145.45;100.00;57426.63;5080722;28;45240;-74
2022/08/01 08:17:39;;;;;;;;;4.50;3.75;;;;;-145.45;100.00;57426.63;5080702;27;45226;-73
2022/08/01 08:20:07;;;;;;;;;4.00;3.00;;;;;-145.45;100.00;57426.63;5080295;27;46060;-73
2022/08/01 08:22:32;;;;;;;;;4.75;4.75;;;;;-145.45;100.00;57426.63;5080576;28;45284;-73
2022/08/01 08:24:57;;;;;;;;;4.50;4.50;;;;;-145.45;100.00;57426.63;5062180;28;45353;-74
2022/08/01 08:27:23;;;;;;;;;3.75;3.75;;;;;-145.45;100.00;57426.63;5080265;28;45835;-74
2022/08/01 08:29:48;;;;;;;;;5.00;5.00;;;;;-145.45;100.00;57426.63;5080272;27;45695;-73
2022/08/01 08:32:14;;;;;;;;;4.00;4.00;;;;;-145.45;100.00;57426.63;5080566;28;45320;-73
2022/08/01 08:34:39;;;;;;;;;3.75;3.75;;;;;-145.45;100.00;57426.63;5066138;28;45382;-73
2022/08/01 08:37:04;;;;;;;;;6.00;4.75;;;;;-145.45;100.00;57426.63;5080084;28;45456;-73
2022/08/01 08:39:31;;;;;;;;;6.00;5.00;;;;;-145.45;100.00;57426.63;5080282;27;46209;-73
2022/08/01 08:41:59;;;;;;;;;5.25;5.25;;;;;-145.45;100.00;57426.63;5079700;27;45350;-73
2022/08/01 08:44:24;;;;;;;;;5.75;4.00;;;;;-145.45;100.00;57426.63;5080305;27;45233;-73
2022/08/01 08:46:51;;;;;;;;;5.50;4.25;;;;;-145.45;100.00;57426.63;5080403;28;45323;-73
2022/08/01 08:49:20;;;;;;;;;5.25;4.25;;;;;-145.45;100.00;57426.63;5079893;28;46156;-74
2022/08/01 08:51:48;;;;;;;;;5.25;3.75;;;;;-145.45;100.00;57426.63;5080017;27;45241;-74
2022/08/01 08:54:14;;;;;;;;;5.00;4.25;;;;;-145.45;100.00;57426.63;5080277;27;45288;-74
2022/08/01 08:56:41;;;;;;;;;3.25;3.25;;;;;-145.45;100.00;57426.63;5080024;27;45285;-73
2022/08/01 08:59:07;;;;;;;;;4.00;2.25;;;;;-145.45;100.00;57426.63;5079729;27;46369;-73
2022/08/01 09:01:33;;;;;;;;;3.00;3.00;;;;;-145.45;100.00;57426.63;5080128;28;45339;-73
2022/08/01 09:03:59;;;;;;;;;3.25;3.25;;;;;-145.45;100.00;57426.63;5061690;28;45494;-73
2022/08/01 09:06:24;;;;;;;;;4.75;3.25;;;;;-145.45;100.00;57426.63;5079749;28;45318;-73
2022/08/01 09:08:50;;;;;;;;;2.75;1.00;;;;;-145.45;100.00;57426.63;5061313;28;46790;-73
2022/08/01 09:11:15;;;;;;;;;3.00;3.00;;;;;-145.45;100.00;57426.63;5078596;28;45300;-73
2022/08/01 09:13:41;;;;;;;;;2.00;2.00;;;;;-145.45;100.00;57426.63;5079934;28;45485;-74
2022/08/01 09:16:06;;;;;;;;;3.00;2.00;;;;;-145.45;100.00;57426.63;5061086;28;45277;-73
2022/08/01 09:18:39;;;;;;;;;3.25;2.75;;;;;-145.45;100.00;57426.63;5076894;28;46881;-74
2022/08/01 09:21:16;;;;;;;;;4.40;3.00;;;;;-145.45;100.00;57426.63;5061579;28;45381;-74
2022/08/01 09:23:50;;;;;;;;;2.50;2.50;;;;;-145.45;100.00;57426.63;5087939;27;45202;-73
2022/08/01 09:26:19;;;;;;;;;3.25;2.75;;;;;-145.45;100.00;57426.63;5079484;27;46217;-73
2022/08/01 09:28:47;;;;;;;;;2.50;2.25;;;;;-145.45;100.00;57426.63;5079646;28;45387;-74
2022/08/01 09:31:16;;;;;;;;;2.20;2.20;;;;;-145.45;100.00;57426.63;5079453;27;45339;-73
2022/08/01 09:34:00;;;;;;;;;3.00;2.25;;;;;-145.45;100.00;57426.63;5068629;27;45191;-73
2022/08/01 09:36:43;;;;;;;;;3.00;3.00;;;;;-145.45;100.00;57426.63;5080337;27;45243;-74
2022/08/01 09:39:13;;;;;;;;;3.00;3.00;;;;;-145.45;100.00;57426.63;5079376;28;45481;-73
2022/08/01 09:41:39;;;;;;;;;4.00;3.00;;;;;-145.45;100.00;57426.63;5060743;28;45308;-74
2022/08/01 09:44:04;;;;;;;;;4.00;3.00;;;;;-145.45;100.00;57426.63;5079565;28;45229;-73
2022/08/01 09:46:30;;;;;;;;;4.50;4.00;;;;;-145.45;100.00;57426.63;5081936;27;45489;-74
2022/08/01 09:48:58;;;;;;;;;3.00;3.00;;;;;-145.45;100.00;57426.63;5083009;27;45481;-73
2022/08/01 09:51:39;;;;;;;;;2.25;1.75;;;;;-145.45;100.00;57426.63;5082922;28;45355;-74
2022/08/01 09:54:06;;;;;;;;;3.00;3.00;;;;;-145.45;100.00;57426.63;5083049;27;45233;-73
2022/08/01 09:56:40;;;;;;;;;4.25;4.25;;;;;-145.45;100.00;57426.63;5081363;27;45950;-73
2022/08/01 09:59:05;;;;;;;;;3.50;2.00;;;;;-145.45;100.00;57426.63;5082740;27;45411;-73
2022/08/01 10:01:49;;;;;;;;;6.25;4.50;;;;;-145.45;100.00;57426.63;5075255;27;45249;-73
2022/08/01 10:04:16;;;;;;;;;3.00;3.00;;;;;-145.45;100.00;57426.63;5081474;28;45363;-74
2022/08/01 10:06:44;;;;;;;;;1.75;1.50;;;;;-145.45;100.00;57426.63;5082568;27;45261;-73
2022/08/01 10:09:12;;;;;;;;;4.25;3.75;;;;;-145.45;100.00;57426.63;5088794;27;45376;-73
2022/08/01 10:11:39;;;;;;;;;3.60;3.60;;;;;-145.45;100.00;57426.63;5102397;27;45194;-74
2022/08/01 10:14:06;;;;;;;;;3.20;3.20;;;;;-145.45;100.00;57426.63;5103361;27;45320;-74
2022/08/01 10:16:34;;;;;;;;;5.00;4.75;;;;;-145.45;100.00;57426.63;5084463;27;45499;-73
2022/08/01 10:19:01;;;;;;;;;3.80;2.80;;;;;-145.45;100.00;57426.63;5103047;27;45429;-73
2022/08/01 10:21:27;;;;;;;;;4.60;4.60;;;;;-145.45;100.00;57426.63;5102713;27;45251;-74
2022/08/01 10:23:54;;;;;;;;;5.00;3.40;;;;;-145.45;100.00;57426.63;5068004;27;45290;-73
2022/08/01 10:26:21;;;;;;;;;4.00;4.00;;;;;-145.45;100.00;57426.63;5100060;27;45385;-73
2022/08/01 10:28:48;;;;;;;;;3.00;3.00;;;;;-145.45;100.00;57426.63;5082319;27;45387;-74
2022/08/01 10:31:14;;;;;;;;;4.80;4.80;;;;;-145.45;100.00;57426.63;5082194;28;45316;-73
2022/08/01 10:33:41;;;;;;;;;4.00;4.00;;;;;-145.45;100.00;57426.63;5082794;27;45322;-74
2022/08/01 10:36:06;;;;;;;;;3.80;3.80;;;;;-145.45;100.00;57426.63;5085659;27;45517;-74
2022/08/01 10:38:33;;;;;;;;;5.50;4.25;;;;;-145.45;100.00;57426.63;5080551;27;46818;-74
2022/08/01 10:41:01;;;;;;;;;6.80;6.60;;;;;-145.45;100.00;57426.63;5082032;27;45251;-74
2022/08/01 10:43:27;;;;;;;;;5.50;4.00;;;;;-145.45;100.00;57426.63;5082217;27;45452;-74
2022/08/01 10:45:53;;;;;;;;;4.50;4.50;;;;;-145.45;100.00;57426.63;5082231;27;45300;-74
2022/08/01 10:48:35;;;;;;;;;4.40;3.80;;;;;-145.45;100.00;57426.63;5081865;28;46202;-73
2022/08/01 10:51:04;;;;;;;;;5.20;4.20;;;;;-145.45;100.00;57426.63;5081612;27;45360;-74
2022/08/01 10:53:29;;;;;;;;;2.80;2.80;;;;;-145.45;100.00;57426.63;5082213;27;45314;-74
2022/08/01 10:56:00;;;;;;;;;4.50;4.50;;;;;-145.45;100.00;57426.63;5081302;27;45404;-74
2022/08/01 10:58:37;;;;;;;;;3.60;3.00;;;;;-145.45;100.00;57426.63;5081983;27;45443;-74
2022/08/01 11:01:14;;;;;;;;;4.80;4.00;;;;;-145.45;100.00;57426.63;5071826;27;45461;-74
2022/08/01 11:03:41;;;;;;;;;3.80;2.80;;;;;-145.45;100.00;57426.63;5102404;27;44780;-73
2022/08/01 11:06:06;;;;;;;;;3.00;2.80;;;;;-145.45;100.00;57426.63;5102230;27;45216;-73
2022/08/01 11:08:37;;;;;;;;;4.00;4.00;;;;;-145.45;100.00;57426.63;5102068;27;46509;-74
2022/08/01 11:11:04;;;;;;;;;2.80;2.80;;;;;-145.45;100.00;57426.63;5102072;27;45485;-73